Terminal Aerodrome Forecast
Issued by NWS Sterling, VA

Current Version | Previous Version | Text Only | Print | Product List | Glossary Off
Versions: 1 2 3 4 5 6 7 8 9 10 11 12 13

000
FTUS41 KLWX 171700 RRA
TAFMRB
TAF
KMRB 171744Z 1718/1818 27009KT P6SM SCT045 BKN060
     FM172200 31006KT P6SM FEW050 SCT250
     FM180200 00000KT P6SM BKN250=

USA.gov is the U.S. government's official web portal to all federal, state and local government web resources and services.